createdAt,value
2023-05-10T00:02:16.585Z,13.80
2023-05-10T00:04:44.429Z,13.80
2023-05-10T00:07:13.717Z,13.80
2023-05-10T00:09:41.645Z,13.80
2023-05-10T00:12:09.417Z,13.70
2023-05-10T00:14:37.223Z,13.80
2023-05-10T00:17:05.213Z,13.80
2023-05-10T00:22:09.699Z,13.80
2023-05-10T00:24:38.781Z,13.80
2023-05-10T00:27:06.556Z,13.70
2023-05-10T00:29:35.325Z,13.70
2023-05-10T00:32:03.153Z,13.80
2023-05-10T00:34:31.339Z,13.80
2023-05-10T00:36:59.136Z,13.80
2023-05-10T00:39:27.381Z,13.80
2023-05-10T00:41:56.552Z,13.80
2023-05-10T00:44:24.436Z,13.80
2023-05-10T00:46:52.483Z,13.80
2023-05-10T00:49:20.744Z,13.70
2023-05-10T00:51:48.560Z,13.70
2023-05-10T00:54:17.071Z,13.70
2023-05-10T00:56:49.452Z,13.70
2023-05-10T00:59:18.874Z,13.70
2023-05-10T01:01:47.142Z,13.70
2023-05-10T01:04:16.315Z,13.70
2023-05-10T01:06:44.757Z,13.70
2023-05-10T01:09:13.569Z,13.60
2023-05-10T01:11:42.183Z,13.70
2023-05-10T01:14:10.405Z,13.60
2023-05-10T01:16:42.495Z,13.60
2023-05-10T01:19:20.327Z,13.60
2023-05-10T01:21:55.190Z,13.70
2023-05-10T01:25:06.666Z,13.60
2023-05-10T01:28:15.190Z,13.60
2023-05-10T01:31:08.795Z,13.60
2023-05-10T01:33:42.280Z,13.60
2023-05-10T01:36:17.706Z,13.60
2023-05-10T01:38:52.263Z,13.50
2023-05-10T01:41:26.059Z,13.50
2023-05-10T01:44:00.422Z,13.50
2023-05-10T01:46:34.773Z,13.50
2023-05-10T01:49:09.690Z,13.50
2023-05-10T01:51:43.711Z,13.50
2023-05-10T01:54:15.159Z,13.50
2023-05-10T01:56:45.849Z,13.50
2023-05-10T01:59:18.842Z,13.50
2023-05-10T02:01:48.316Z,13.50
2023-05-10T02:04:19.446Z,13.50
2023-05-10T02:06:49.784Z,13.50
2023-05-10T02:09:20.015Z,13.40
2023-05-10T02:11:50.180Z,13.40
2023-05-10T02:14:19.210Z,13.40
2023-05-10T02:16:48.099Z,13.40
2023-05-10T02:19:19.068Z,13.40
2023-05-10T02:21:48.268Z,13.30
2023-05-10T02:24:17.891Z,13.40
2023-05-10T02:26:47.257Z,13.40
2023-05-10T02:29:15.909Z,13.40
2023-05-10T02:31:44.505Z,13.40
2023-05-10T02:34:13.230Z,13.30
2023-05-10T02:36:43.978Z,13.30
2023-05-10T02:39:14.422Z,13.30
2023-05-10T02:41:43.201Z,13.30
2023-05-10T02:44:12.532Z,13.30
2023-05-10T02:46:40.363Z,13.30
2023-05-10T02:49:08.196Z,13.30
2023-05-10T02:51:39.252Z,13.20
2023-05-10T02:54:14.459Z,13.20
2023-05-10T02:56:48.896Z,13.20
2023-05-10T02:59:16.662Z,13.20
2023-05-10T03:01:44.513Z,13.20
2023-05-10T03:04:12.323Z,13.30
2023-05-10T03:06:40.296Z,13.30
2023-05-10T03:09:11.985Z,13.30
2023-05-10T03:11:56.553Z,13.30
2023-05-10T03:14:42.308Z,13.30
2023-05-10T03:17:17.153Z,13.20
2023-05-10T03:19:51.795Z,13.20
2023-05-10T03:22:26.652Z,13.20
2023-05-10T03:24:59.250Z,13.20
2023-05-10T03:27:28.876Z,13.20
2023-05-10T03:29:57.572Z,13.30
2023-05-10T03:32:25.670Z,13.20
2023-05-10T03:34:53.763Z,13.20
2023-05-10T03:37:21.572Z,13.20
2023-05-10T03:39:49.386Z,13.30
2023-05-10T03:42:18.961Z,13.30
2023-05-10T03:44:46.758Z,13.30
2023-05-10T03:47:14.553Z,13.30
2023-05-10T03:49:42.647Z,13.20
2023-05-10T03:52:10.463Z,13.20
2023-05-10T03:54:38.280Z,13.20
2023-05-10T03:57:06.242Z,13.20
2023-05-10T03:59:36.640Z,13.20
2023-05-10T04:02:05.023Z,13.20
2023-05-10T04:04:34.733Z,13.30
2023-05-10T04:07:02.601Z,13.20
2023-05-10T04:09:32.162Z,13.20
2023-05-10T04:12:00.956Z,13.20
2023-05-10T04:14:28.733Z,13.20
2023-05-10T04:16:57.823Z,13.20
2023-05-10T04:19:25.646Z,13.30
2023-05-10T04:21:53.405Z,13.30
2023-05-10T04:24:21.187Z,13.30
2023-05-10T04:26:48.985Z,13.20
2023-05-10T04:29:16.745Z,13.30
2023-05-10T04:31:44.527Z,13.30
2023-05-10T04:34:13.727Z,13.30
2023-05-10T04:36:41.532Z,13.30
2023-05-10T04:39:10.651Z,13.30
2023-05-10T04:41:39.946Z,13.30
2023-05-10T04:44:08.049Z,13.30
2023-05-10T04:46:35.863Z,13.30
2023-05-10T04:49:03.704Z,13.30
2023-05-10T04:51:33.091Z,13.30
2023-05-10T04:54:05.995Z,13.30
2023-05-10T04:56:34.220Z,13.30
2023-05-10T04:59:02.071Z,13.30
2023-05-10T05:01:30.144Z,13.20
2023-05-10T05:03:58.229Z,13.10
2023-05-10T05:06:28.062Z,13.20
2023-05-10T05:08:57.194Z,13.20
2023-05-10T05:11:25.017Z,13.20
2023-05-10T05:13:52.813Z,13.20
2023-05-10T05:16:20.655Z,13.10
2023-05-10T05:18:48.484Z,13.10
2023-05-10T05:21:17.231Z,13.00
2023-05-10T05:23:45.702Z,13.00
2023-05-10T05:26:15.977Z,13.00
2023-05-10T05:28:43.950Z,13.00
2023-05-10T05:31:11.785Z,12.80
2023-05-10T05:33:39.582Z,12.60
2023-05-10T05:36:08.197Z,12.40
2023-05-10T05:38:36.009Z,12.40
2023-05-10T05:41:03.981Z,12.40
2023-05-10T05:43:33.111Z,12.40
2023-05-10T05:46:01.447Z,12.40
2023-05-10T05:48:29.274Z,12.50
2023-05-10T05:50:57.981Z,12.60
2023-05-10T05:53:26.148Z,12.60
2023-05-10T05:55:55.119Z,12.70
2023-05-10T05:58:23.526Z,12.80
2023-05-10T06:00:53.752Z,12.90
2023-05-10T06:03:22.044Z,12.90
2023-05-10T06:05:50.019Z,13.00
2023-05-10T06:08:17.801Z,12.90
2023-05-10T06:10:46.330Z,13.10
2023-05-10T06:13:14.214Z,13.20
2023-05-10T06:15:41.979Z,13.20
2023-05-10T06:18:11.181Z,13.20
2023-05-10T06:20:38.995Z,13.30
2023-05-10T06:23:06.763Z,13.20
2023-05-10T06:25:34.822Z,13.30
2023-05-10T06:28:02.906Z,13.30
2023-05-10T06:30:30.721Z,13.40
2023-05-10T06:32:58.833Z,13.40
2023-05-10T06:35:27.995Z,13.50
2023-05-10T06:37:56.279Z,13.40
2023-05-10T06:40:24.108Z,13.40
2023-05-10T06:42:52.159Z,13.40
2023-05-10T06:45:20.073Z,13.50
2023-05-10T06:47:48.049Z,13.50
2023-05-10T06:50:16.112Z,13.50
2023-05-10T06:52:45.204Z,13.50
2023-05-10T06:55:13.531Z,13.60
2023-05-10T06:57:41.314Z,13.60
2023-05-10T07:00:10.561Z,13.50
2023-05-10T07:02:38.469Z,13.50
2023-05-10T07:05:07.137Z,13.50
2023-05-10T07:07:34.897Z,13.60
2023-05-10T07:10:04.411Z,13.60
2023-05-10T07:12:32.346Z,13.60
2023-05-10T07:15:00.173Z,13.80
2023-05-10T07:17:28.724Z,14.00
2023-05-10T07:19:56.554Z,14.30
2023-05-10T07:22:24.359Z,14.50
2023-05-10T07:24:52.214Z,14.70
2023-05-10T07:27:21.479Z,14.80
2023-05-10T07:29:49.465Z,14.70
2023-05-10T07:32:17.288Z,14.50
2023-05-10T07:34:45.148Z,14.50
2023-05-10T07:37:13.003Z,14.50
2023-05-10T07:39:40.893Z,14.50
2023-05-10T07:42:09.214Z,14.50
2023-05-10T07:44:38.318Z,14.70
2023-05-10T07:47:06.209Z,14.90
2023-05-10T07:49:34.083Z,15.20
2023-05-10T07:52:01.854Z,15.30
2023-05-10T07:54:29.673Z,15.30
2023-05-10T07:56:57.468Z,15.60
2023-05-10T07:59:25.326Z,15.80
2023-05-10T08:01:54.525Z,15.80
2023-05-10T08:04:22.432Z,15.80
2023-05-10T08:06:50.308Z,15.70
2023-05-10T08:09:19.026Z,15.70
2023-05-10T08:11:46.816Z,15.60
2023-05-10T08:14:14.610Z,15.60
2023-05-10T08:16:42.486Z,15.60
2023-05-10T08:19:11.726Z,15.50
2023-05-10T08:21:41.385Z,15.70
2023-05-10T08:24:09.446Z,15.70
2023-05-10T08:26:37.284Z,15.50
2023-05-10T08:29:05.102Z,15.30
2023-05-10T08:31:33.054Z,15.00
2023-05-10T08:34:01.146Z,14.80
2023-05-10T08:36:30.804Z,14.70
2023-05-10T08:38:58.663Z,14.60
2023-05-10T08:41:27.112Z,14.60
2023-05-10T08:43:55.786Z,14.50
2023-05-10T08:46:25.211Z,14.70
2023-05-10T08:48:53.456Z,14.90
2023-05-10T08:51:24.689Z,14.90
2023-05-10T08:53:54.232Z,14.90
2023-05-10T08:56:22.342Z,14.60
2023-05-10T08:58:50.822Z,14.50
2023-05-10T09:01:20.206Z,14.50
2023-05-10T09:03:48.913Z,14.70
2023-05-10T09:06:16.991Z,14.90
2023-05-10T09:08:45.661Z,15.50
2023-05-10T09:11:15.051Z,16.20
2023-05-10T09:13:44.285Z,16.40
2023-05-10T09:16:21.014Z,16.20
2023-05-10T09:18:50.328Z,15.90
2023-05-10T09:21:21.916Z,15.70
2023-05-10T09:23:50.932Z,15.60
2023-05-10T09:26:24.535Z,15.60
2023-05-10T09:28:53.619Z,15.70
2023-05-10T09:31:21.706Z,15.80
2023-05-10T09:33:50.808Z,16.00
2023-05-10T09:36:18.801Z,16.10
2023-05-10T09:38:50.509Z,16.20
2023-05-10T09:41:21.100Z,16.10
2023-05-10T09:43:49.079Z,16.30
2023-05-10T09:46:17.692Z,16.50
2023-05-10T09:48:47.150Z,16.80
2023-05-10T09:51:21.484Z,16.90
2023-05-10T09:53:51.368Z,16.70
2023-05-10T09:56:40.760Z,16.70
2023-05-10T09:59:09.959Z,16.50
2023-05-10T10:01:38.208Z,16.50
2023-05-10T10:04:08.172Z,16.60
2023-05-10T10:06:39.813Z,16.70
2023-05-10T10:09:08.762Z,16.90
2023-05-10T10:11:39.453Z,17.20
2023-05-10T10:14:07.398Z,17.00
2023-05-10T10:16:35.348Z,16.90
2023-05-10T10:19:03.335Z,16.80
2023-05-10T10:21:31.800Z,16.50
2023-05-10T10:23:59.607Z,16.50
2023-05-10T10:26:27.934Z,16.70
2023-05-10T10:29:12.537Z,16.80
2023-05-10T10:31:47.186Z,17.20
2023-05-10T10:34:27.120Z,17.30
2023-05-10T10:36:55.797Z,17.30
2023-05-10T10:39:23.926Z,17.30
2023-05-10T10:41:52.946Z,17.00
2023-05-10T10:44:39.191Z,16.80
2023-05-10T10:47:25.592Z,16.40
2023-05-10T10:50:04.364Z,16.00
2023-05-10T10:52:35.085Z,15.90
2023-05-10T10:55:06.069Z,15.80
2023-05-10T10:57:35.067Z,15.70
2023-05-10T11:00:32.033Z,15.70
2023-05-10T11:03:02.032Z,15.50
2023-05-10T11:05:47.879Z,15.50
2023-05-10T11:08:22.900Z,15.70
2023-05-10T11:11:07.851Z,15.70
2023-05-10T11:13:39.427Z,15.70
2023-05-10T11:16:19.924Z,15.80
2023-05-10T11:19:02.500Z,15.80
2023-05-10T11:21:31.045Z,15.90
2023-05-10T11:23:59.810Z,15.70
2023-05-10T11:26:32.364Z,15.50
2023-05-10T11:29:01.639Z,15.20
2023-05-10T11:31:31.270Z,15.20
2023-05-10T11:34:02.520Z,15.10
2023-05-10T11:36:31.943Z,15.00
2023-05-10T11:38:59.772Z,14.70
2023-05-10T11:41:30.165Z,14.40
2023-05-10T11:43:58.768Z,14.40
2023-05-10T11:46:28.084Z,14.30
2023-05-10T11:49:01.557Z,14.10
2023-05-10T11:51:29.703Z,14.00
2023-05-10T11:53:58.731Z,13.90
2023-05-10T11:56:27.296Z,13.80
2023-05-10T11:58:57.391Z,13.90
2023-05-10T12:01:26.399Z,13.90
2023-05-10T12:03:55.400Z,13.80
2023-05-10T12:06:28.050Z,13.90
2023-05-10T12:08:55.816Z,13.80
2023-05-10T12:11:27.004Z,13.80
2023-05-10T12:13:55.122Z,13.80
2023-05-10T12:16:24.712Z,13.80
2023-05-10T12:18:53.364Z,13.70
2023-05-10T12:21:22.626Z,13.70
2023-05-10T12:23:53.724Z,13.70
2023-05-10T12:26:24.196Z,13.60
2023-05-10T12:28:51.984Z,13.60
2023-05-10T12:31:19.834Z,13.70
2023-05-10T12:33:48.370Z,13.70
2023-05-10T12:36:17.294Z,13.60
2023-05-10T12:38:48.779Z,13.40
2023-05-10T12:41:19.938Z,13.50
2023-05-10T12:43:48.913Z,13.60
2023-05-10T12:46:19.545Z,13.70
2023-05-10T12:48:53.255Z,13.70
2023-05-10T12:51:25.387Z,13.70
2023-05-10T12:53:53.343Z,13.80
2023-05-10T12:56:22.525Z,13.60
2023-05-10T12:58:50.496Z,13.80
2023-05-10T13:01:18.882Z,13.90
2023-05-10T13:03:46.840Z,13.90
2023-05-10T13:06:15.556Z,14.00
2023-05-10T13:08:43.398Z,13.90
2023-05-10T13:11:11.437Z,13.90
2023-05-10T13:13:40.583Z,14.10
2023-05-10T13:16:09.128Z,14.10
2023-05-10T13:18:37.233Z,14.20
2023-05-10T13:21:06.323Z,14.30
2023-05-10T13:23:34.159Z,14.20
2023-05-10T13:26:01.942Z,14.30
2023-05-10T13:28:30.461Z,14.20
2023-05-10T13:31:00.894Z,14.20
2023-05-10T13:33:28.737Z,14.20
2023-05-10T13:35:56.566Z,14.10
2023-05-10T13:38:24.396Z,14.00
2023-05-10T13:40:53.676Z,14.00
2023-05-10T13:43:21.742Z,14.00
2023-05-10T13:45:49.529Z,13.90
2023-05-10T13:48:18.631Z,13.80
2023-05-10T13:50:47.028Z,14.00
2023-05-10T13:53:15.278Z,14.00
2023-05-10T13:55:43.640Z,14.00
2023-05-10T13:58:11.537Z,14.00
2023-05-10T14:00:39.322Z,14.00
2023-05-10T14:03:07.850Z,13.80
2023-05-10T14:05:37.522Z,13.90
2023-05-10T14:08:05.639Z,13.90
2023-05-10T14:10:33.459Z,13.90
2023-05-10T14:13:01.315Z,13.90
2023-05-10T14:15:29.199Z,14.00
2023-05-10T14:17:56.978Z,14.00
2023-05-10T14:20:24.851Z,14.00
2023-05-10T14:22:53.982Z,14.10
2023-05-10T14:25:21.886Z,14.00
2023-05-10T14:27:49.783Z,13.90
2023-05-10T14:30:17.624Z,13.90
2023-05-10T14:32:45.468Z,13.80
2023-05-10T14:35:14.473Z,13.70
2023-05-10T14:37:43.848Z,13.40
2023-05-10T14:40:16.030Z,13.60
2023-05-10T14:42:44.554Z,13.60
2023-05-10T14:45:13.126Z,13.50
2023-05-10T14:47:40.903Z,13.40
2023-05-10T14:50:09.759Z,13.40
2023-05-10T14:52:37.579Z,13.30
2023-05-10T14:55:06.114Z,13.20
2023-05-10T14:57:35.222Z,13.30
2023-05-10T15:00:03.292Z,13.30
2023-05-10T15:02:32.732Z,13.30
2023-05-10T15:05:00.937Z,13.20
2023-05-10T15:07:29.302Z,13.20
2023-05-10T15:09:57.398Z,13.10
2023-05-10T15:12:25.330Z,13.10
2023-05-10T15:14:54.446Z,13.10
2023-05-10T15:17:22.323Z,13.20
2023-05-10T15:19:50.467Z,13.20
2023-05-10T15:22:18.812Z,13.20
2023-05-10T15:24:46.681Z,13.20
2023-05-10T15:27:14.501Z,13.30
2023-05-10T15:29:42.337Z,13.30
2023-05-10T15:32:11.628Z,13.20
2023-05-10T15:34:39.380Z,13.20
2023-05-10T15:37:07.217Z,13.10
2023-05-10T15:39:35.002Z,13.20
2023-05-10T15:42:03.925Z,13.20
2023-05-10T15:44:31.727Z,13.10
2023-05-10T15:46:59.691Z,13.10
2023-05-10T15:49:29.044Z,13.10
2023-05-10T15:51:56.859Z,13.00
2023-05-10T15:54:24.851Z,13.00
2023-05-10T15:56:54.735Z,13.00
2023-05-10T15:59:23.150Z,12.90
2023-05-10T16:01:51.326Z,12.90
2023-05-10T16:04:19.164Z,12.80
2023-05-10T16:06:48.250Z,12.90
2023-05-10T16:09:16.493Z,12.80
2023-05-10T16:11:44.596Z,12.80
2023-05-10T16:14:12.408Z,12.70
2023-05-10T16:16:40.504Z,12.70
2023-05-10T16:19:08.496Z,12.60
2023-05-10T16:21:36.432Z,12.60
2023-05-10T16:24:06.936Z,12.50
2023-05-10T16:26:40.477Z,12.50
2023-05-10T16:29:08.593Z,12.50
2023-05-10T16:31:36.471Z,12.50
2023-05-10T16:34:04.339Z,12.50
2023-05-10T16:36:33.329Z,12.40
2023-05-10T16:39:01.716Z,12.50
2023-05-10T16:41:33.606Z,12.40
2023-05-10T16:44:01.533Z,12.40
2023-05-10T16:46:29.476Z,12.40
2023-05-10T16:48:59.671Z,12.40
2023-05-10T16:51:27.579Z,12.50
2023-05-10T16:53:55.928Z,12.40
2023-05-10T16:56:23.917Z,12.40
2023-05-10T16:58:53.904Z,12.40
2023-05-10T17:01:23.200Z,12.20
2023-05-10T17:03:52.378Z,12.10
2023-05-10T17:06:20.410Z,12.00
2023-05-10T17:08:48.273Z,11.90
2023-05-10T17:11:16.134Z,11.70
2023-05-10T17:13:43.884Z,11.70
2023-05-10T17:16:13.377Z,11.60
2023-05-10T17:18:42.349Z,11.60
2023-05-10T17:21:10.489Z,11.60
2023-05-10T17:23:38.495Z,11.60
2023-05-10T17:26:07.130Z,11.60
2023-05-10T17:28:34.933Z,11.60
2023-05-10T17:31:03.238Z,11.60
2023-05-10T17:33:32.466Z,11.60
2023-05-10T17:36:00.374Z,11.50
2023-05-10T17:38:28.205Z,11.50
2023-05-10T17:40:56.038Z,11.50
2023-05-10T17:43:25.918Z,11.50
2023-05-10T17:45:53.764Z,11.50
2023-05-10T17:48:21.969Z,11.50
2023-05-10T17:50:52.391Z,11.40
2023-05-10T17:53:20.325Z,11.40
2023-05-10T17:55:48.174Z,11.40
2023-05-10T17:58:15.974Z,11.30
2023-05-10T18:00:43.986Z,11.20
2023-05-10T18:03:12.646Z,11.10
2023-05-10T18:05:42.735Z,11.10
2023-05-10T18:08:12.789Z,11.00
2023-05-10T18:10:41.637Z,11.00
2023-05-10T18:13:09.551Z,11.10
2023-05-10T18:15:37.500Z,11.00
2023-05-10T18:18:06.077Z,11.10
2023-05-10T18:20:34.039Z,11.00
2023-05-10T18:23:02.514Z,11.10
2023-05-10T18:25:31.705Z,11.10
2023-05-10T18:27:59.567Z,11.20
2023-05-10T18:30:27.616Z,11.20
2023-05-10T18:32:55.608Z,11.20
2023-05-10T18:35:23.435Z,11.20
2023-05-10T18:37:51.724Z,11.20
2023-05-10T18:40:19.705Z,11.10
2023-05-10T18:42:50.000Z,11.20
2023-05-10T18:45:18.214Z,11.20
2023-05-10T18:47:46.304Z,11.20
2023-05-10T18:50:14.278Z,11.10
2023-05-10T18:52:43.066Z,11.10
2023-05-10T18:55:11.218Z,11.10
2023-05-10T18:57:41.514Z,11.10
2023-05-10T19:00:13.571Z,11.10
2023-05-10T19:02:41.742Z,11.10
2023-05-10T19:05:10.406Z,11.10
2023-05-10T19:07:38.348Z,11.00
2023-05-10T19:10:07.308Z,11.00
2023-05-10T19:12:35.689Z,11.00
2023-05-10T19:15:03.506Z,11.00
2023-05-10T19:17:32.710Z,10.90
2023-05-10T19:20:00.578Z,10.90
2023-05-10T19:22:44.864Z,10.90
2023-05-10T19:25:17.733Z,10.90
2023-05-10T19:27:46.050Z,10.90
2023-05-10T19:30:14.294Z,10.90
2023-05-10T19:32:44.384Z,11.00
2023-05-10T19:35:12.729Z,11.00
2023-05-10T19:37:40.643Z,11.00
2023-05-10T19:40:10.167Z,10.90
2023-05-10T19:42:38.712Z,10.90
2023-05-10T19:45:07.556Z,10.90
2023-05-10T19:47:35.895Z,10.90
2023-05-10T19:50:06.300Z,10.90
2023-05-10T19:52:34.285Z,10.90
2023-05-10T19:55:02.179Z,10.90
2023-05-10T19:57:30.016Z,10.90
2023-05-10T19:59:57.910Z,10.90
2023-05-10T20:02:25.755Z,10.80
2023-05-10T20:04:53.656Z,10.90
2023-05-10T20:07:22.905Z,11.00
2023-05-10T20:09:50.811Z,11.00
2023-05-10T20:12:18.701Z,11.00
2023-05-10T20:14:46.449Z,10.90
2023-05-10T20:17:14.288Z,10.90
2023-05-10T20:19:42.089Z,10.80
2023-05-10T20:22:10.485Z,10.80
2023-05-10T20:24:39.681Z,10.80
2023-05-10T20:27:07.636Z,10.80
2023-05-10T20:29:35.497Z,10.80
2023-05-10T20:32:03.346Z,10.70
2023-05-10T20:34:31.640Z,10.70
2023-05-10T20:36:59.616Z,10.70
2023-05-10T20:39:27.471Z,10.80
2023-05-10T20:41:57.167Z,10.70
2023-05-10T20:44:25.297Z,10.70
2023-05-10T20:46:53.302Z,10.70
2023-05-10T20:49:21.813Z,10.80
2023-05-10T20:51:49.596Z,10.70
2023-05-10T20:54:17.389Z,10.80
2023-05-10T20:56:45.209Z,10.80
2023-05-10T20:59:14.357Z,10.70
2023-05-10T21:01:42.166Z,10.60
2023-05-10T21:04:10.159Z,10.70
2023-05-10T21:06:38.096Z,10.60
2023-05-10T21:09:06.122Z,10.70
2023-05-10T21:11:36.180Z,10.70
2023-05-10T21:14:04.061Z,10.70
2023-05-10T21:16:33.540Z,10.70
2023-05-10T21:19:01.644Z,10.70
2023-05-10T21:21:29.451Z,10.70
2023-05-10T21:23:57.218Z,10.60
2023-05-10T21:26:25.149Z,10.70
2023-05-10T21:28:52.911Z,10.70
2023-05-10T21:31:20.780Z,10.70
2023-05-10T21:33:50.014Z,10.70
2023-05-10T21:36:17.882Z,10.60
2023-05-10T21:38:46.328Z,10.50
2023-05-10T21:41:14.124Z,10.50
2023-05-10T21:43:41.901Z,10.50
2023-05-10T21:46:09.824Z,10.50
2023-05-10T21:48:37.689Z,10.50
2023-05-10T21:51:06.924Z,10.50
2023-05-10T21:53:34.839Z,10.50
2023-05-10T21:56:02.781Z,10.50
2023-05-10T21:58:30.523Z,10.50
2023-05-10T22:00:58.354Z,10.50
2023-05-10T22:03:26.390Z,10.40
2023-05-10T22:05:54.250Z,10.50
2023-05-10T22:08:23.372Z,10.40
2023-05-10T22:10:52.506Z,10.40
2023-05-10T22:13:20.318Z,10.40
2023-05-10T22:15:48.112Z,10.40
2023-05-10T22:18:15.972Z,10.40
2023-05-10T22:20:46.376Z,10.40
2023-05-10T22:23:14.341Z,10.30
2023-05-10T22:25:43.554Z,10.40
2023-05-10T22:28:11.593Z,10.30
2023-05-10T22:30:39.363Z,10.30
2023-05-10T22:33:07.327Z,10.30
2023-05-10T22:35:35.330Z,10.30
2023-05-10T22:38:04.106Z,10.30
2023-05-10T22:40:32.106Z,10.30
2023-05-10T22:43:01.259Z,10.30
2023-05-10T22:45:29.033Z,10.20
2023-05-10T22:47:56.938Z,10.30
2023-05-10T22:50:25.211Z,10.30
2023-05-10T22:52:53.023Z,10.20
2023-05-10T22:55:20.864Z,10.30
2023-05-10T22:57:48.626Z,10.30
2023-05-10T23:00:18.585Z,10.30
2023-05-10T23:02:46.929Z,10.30
2023-05-10T23:05:14.748Z,10.30
2023-05-10T23:07:42.943Z,10.30
2023-05-10T23:10:11.412Z,10.30
2023-05-10T23:12:39.155Z,10.20
2023-05-10T23:15:07.891Z,10.20
2023-05-10T23:17:37.095Z,10.20
2023-05-10T23:20:05.414Z,10.20
2023-05-10T23:22:33.217Z,10.10
2023-05-10T23:25:01.011Z,10.20
2023-05-10T23:27:30.142Z,10.20
2023-05-10T23:29:58.197Z,10.20
2023-05-10T23:32:26.089Z,10.20
2023-05-10T23:34:55.250Z,10.20
2023-05-10T23:37:23.061Z,10.10
2023-05-10T23:39:50.949Z,10.10
2023-05-10T23:42:18.769Z,10.10
2023-05-10T23:44:46.681Z,10.00
2023-05-10T23:47:14.518Z,10.10
2023-05-10T23:49:42.875Z,10.10
2023-05-10T23:52:11.999Z,10.10
2023-05-10T23:54:39.864Z,10.10
2023-05-10T23:57:07.759Z,10.00
2023-05-10T23:59:35.533Z,9.90
